Wind from 180 at 26 knots gusting 33

Air temperature 7.0° C
Dewpoint 6.0° C

Last reported at 2014-Apr-20 01:00 UTC.
Time now 2014-Apr-20 03:23 UTC

Location: N 53°19' W 132°46'.
View on Google Maps.

See reports from other nearby stations

Tides Stations Pressure Air Temp Water Temp Dewpoint Dewpoint depression Visibility Wind Speed Wind Dir Waves Ship positions

  
sailing weather and tide predictions

KINDAKUN POINT, BC weather

date/time (UTC)wind fromknots sea level pressurealtimeterstation pressurevisibilityair tempwater tempwave heightnotes
2014-Apr-20 02:00 190 29 gusting 35 7.0
2014-Apr-20 01:00 180 26 gusting 33 7.0
2014-Apr-20 00:00 170 29 gusting 34 8.0
2014-Apr-19 23:00 170 33 gusting 40 8.0
2014-Apr-19 22:00 170 15 9.0
2014-Apr-19 21:00 170 11 9.0
2014-Apr-19 20:00 130 12 gusting 18 10.0
2014-Apr-19 19:00 130 11 gusting 17 9.0
2014-Apr-19 18:00 120 14 gusting 19 9.0
2014-Apr-19 17:00 110 16 gusting 24 9.0
2014-Apr-19 16:00 120 13 gusting 20 9.0
2014-Apr-19 15:00 110 13 gusting 24 9.0
2014-Apr-19 14:00 110 17 gusting 29 9.0
2014-Apr-19 13:00 100 19 gusting 29 8.0
2014-Apr-19 12:00 100 16 gusting 26 8.0
2014-Apr-19 11:00 100 17 gusting 24 8.0
2014-Apr-19 10:00 120 16 gusting 23 8.0
2014-Apr-19 09:00 110 15 gusting 26 8.0
2014-Apr-19 08:00 110 10 gusting 18 7.0
2014-Apr-19 07:00 160 18 gusting 27 8.0
2014-Apr-19 06:00 180 17 gusting 22 7.0
2014-Apr-19 05:00 180 18 gusting 25 8.0
2014-Apr-19 04:00 110 11 gusting 19 9.0
2014-Apr-19 03:00 110 12 gusting 19 9.0
2014-Apr-19 02:00 120 12 gusting 18 9.0
2014-Apr-19 01:00 150 18 gusting 23 9.0
2014-Apr-19 00:00 180 16 9.0
2014-Apr-18 23:00 180 20 8.0
2014-Apr-18 22:00 180 20 gusting 26 8.0
2014-Apr-18 21:00 180 20 gusting 25 8.0
2014-Apr-18 20:00 180 19 gusting 26 8.0
2014-Apr-18 19:00 180 14 8.0
2014-Apr-18 18:00 160 12 8.0
2014-Apr-18 17:00 150 10 7.0
2014-Apr-18 16:00 140 11 7.0
2014-Apr-18 15:00 160 11 6.0
2014-Apr-18 14:00 150 11 6.0
2014-Apr-18 13:00 180 13 6.0
2014-Apr-18 12:00 160 11 6.0
2014-Apr-18 11:00 190 11 7.0
2014-Apr-18 10:00 190 9 7.0
2014-Apr-18 09:00 220 6 6.0
2014-Apr-18 08:00 250 5 6.0
2014-Apr-18 07:00 220 12 7.0
2014-Apr-18 06:00 230 11 7.0
2014-Apr-18 05:00 260 3 6.0
2014-Apr-18 04:00 260 13 7.0
2014-Apr-18 03:00 270 11 7.0